Time;durP1;ratioP1;P1;durP2;ratioP2;P2;SDS_P1;SDS_P2;PMS_P1;PMS_P2;Temp;Humidity;BMP_temperature;BMP_pressure;BME280_temperature;BME280_humidity;BME280_pressure;Samples;Min_cycle;Max_cycle;Signal;HPM_P1;HPM_P2
2023/02/21 02:14:51;;;;;;;12.83;1.67;;;;;;;;;;4975129;28;20044;-63
2023/02/21 02:17:23;;;;;;;3.00;1.63;;;;;;;;;;4973205;28;20027;-64
2023/02/21 02:19:56;;;;;;;3.50;1.77;;;;;;;;;;4971424;28;20105;-64
2023/02/21 02:22:41;;;;;;;2.10;1.37;;;;;;;;;;4971200;28;20027;-64
2023/02/21 02:25:18;;;;;;;3.75;1.67;;;;;;;;;;4971296;28;20157;-64
2023/02/21 02:27:57;;;;;;;21.57;2.20;;;;;;;;;;4975890;28;20369;-64
2023/02/21 02:30:40;;;;;;;1.53;1.10;;;;;;;;;;4976671;28;20026;-64
2023/02/21 02:33:25;;;;;;;6.27;2.27;;;;;;;;;;4976469;28;20026;-64
2023/02/21 02:35:58;;;;;;;4.88;1.48;;;;;;;;;;4976210;28;20086;-64
2023/02/21 02:38:38;;;;;;;2.17;1.47;;;;;;;;;;4975576;28;20026;-65
2023/02/21 02:41:08;;;;;;;4.43;2.13;;;;;;;;;;4971060;28;20035;-63
2023/02/21 02:43:42;;;;;;;4.23;2.00;;;;;;;;;;4970549;28;20030;-63
2023/02/21 02:46:17;;;;;;;5.97;1.92;;;;;;;;;;4970808;28;20195;-64
2023/02/21 02:48:50;;;;;;;2.90;1.90;;;;;;;;;;4972242;28;20085;-64
2023/02/21 02:51:17;;;;;;;9.63;1.90;;;;;;;;;;4975958;28;20355;-64
2023/02/21 02:53:44;;;;;;;6.53;1.67;;;;;;;;;;4976345;28;20055;-63
2023/02/21 02:56:13;;;;;;;3.27;2.20;;;;;;;;;;4976315;28;20372;-63
2023/02/21 02:58:46;;;;;;;3.57;1.57;;;;;;;;;;4975927;28;20023;-63
2023/02/21 03:01:13;;;;;;;2.27;1.27;;;;;;;;;;4974077;28;20034;-64
2023/02/21 03:03:51;;;;;;;2.30;1.47;;;;;;;;;;4970689;28;20039;-63
2023/02/21 03:06:18;;;;;;;1.80;1.27;;;;;;;;;;4970582;28;20027;-63
2023/02/21 03:09:03;;;;;;;5.00;1.70;;;;;;;;;;4970584;28;20046;-63
2023/02/21 03:11:30;;;;;;;1.88;1.38;;;;;;;;;;4972938;28;20027;-63
2023/02/21 03:14:08;;;;;;;4.00;1.63;;;;;;;;;;4975842;28;20057;-64
2023/02/21 03:16:39;;;;;;;5.00;2.30;;;;;;;;;;4975955;28;20042;-63
2023/02/21 03:19:17;;;;;;;2.63;1.80;;;;;;;;;;4975732;28;20102;-63
2023/02/21 03:21:52;;;;;;;7.77;2.10;;;;;;;;;;4975882;28;20095;-63
2023/02/21 03:24:19;;;;;;;2.27;1.47;;;;;;;;;;4972136;28;20030;-64
2023/02/21 03:26:48;;;;;;;8.97;1.70;;;;;;;;;;4969510;28;20102;-63
2023/02/21 03:29:16;;;;;;;5.87;2.03;;;;;;;;;;4969951;28;20117;-64
2023/02/21 03:31:50;;;;;;;4.50;2.43;;;;;;;;;;4970382;28;20026;-63
2023/02/21 03:34:17;;;;;;;5.13;2.30;;;;;;;;;;4973336;28;20023;-63
2023/02/21 03:36:45;;;;;;;7.10;2.30;;;;;;;;;;4975437;28;20026;-65
2023/02/21 03:39:12;;;;;;;10.67;3.40;;;;;;;;;;4975590;28;20110;-63
2023/02/21 03:41:38;;;;;;;7.70;2.03;;;;;;;;;;4975388;28;20085;-63
2023/02/21 03:44:05;;;;;;;5.03;3.03;;;;;;;;;;4975319;28;20031;-63
2023/02/21 03:46:32;;;;;;;6.83;2.97;;;;;;;;;;4971828;28;20030;-64
2023/02/21 03:48:59;;;;;;;8.73;1.77;;;;;;;;;;4969385;28;20054;-63
2023/02/21 03:51:25;;;;;;;4.80;2.40;;;;;;;;;;4969738;28;20026;-63
2023/02/21 03:53:52;;;;;;;4.10;2.80;;;;;;;;;;4969870;28;20018;-64
2023/02/21 03:56:19;;;;;;;11.37;3.33;;;;;;;;;;4972538;28;20095;-63
2023/02/21 03:58:46;;;;;;;2.67;1.93;;;;;;;;;;4975053;28;20036;-63
2023/02/21 04:01:12;;;;;;;2.17;1.57;;;;;;;;;;4974850;28;20042;-64
2023/02/21 04:03:39;;;;;;;3.17;1.87;;;;;;;;;;4974797;28;20023;-63
2023/02/21 04:06:06;;;;;;;4.03;2.87;;;;;;;;;;4974906;28;20126;-63
2023/02/21 04:08:33;;;;;;;2.47;1.50;;;;;;;;;;4972023;28;20034;-63
2023/02/21 04:10:59;;;;;;;5.30;1.90;;;;;;;;;;4969601;28;20066;-63
2023/02/21 04:13:26;;;;;;;1.93;1.57;;;;;;;;;;4969465;28;20351;-63
2023/02/21 04:15:53;;;;;;;4.37;1.67;;;;;;;;;;4969512;28;20031;-63
2023/02/21 04:18:19;;;;;;;21.50;3.00;;;;;;;;;;4971003;28;20367;-63
2023/02/21 04:20:46;;;;;;;8.03;2.23;;;;;;;;;;4974329;28;20589;-63
2023/02/21 04:23:17;;;;;;;5.40;2.20;;;;;;;;;;4974718;28;20105;-63
2023/02/21 04:25:44;;;;;;;2.60;1.83;;;;;;;;;;4974695;28;20150;-63
2023/02/21 04:28:10;;;;;;;2.13;1.57;;;;;;;;;;4974548;28;20054;-63
2023/02/21 04:30:37;;;;;;;3.63;2.30;;;;;;;;;;4972227;28;20026;-63
2023/02/21 04:33:04;;;;;;;11.50;3.10;;;;;;;;;;4969059;28;20481;-63
2023/02/21 04:35:31;;;;;;;1.87;1.47;;;;;;;;;;4968882;28;20058;-63
2023/02/21 04:37:58;;;;;;;1.97;1.43;;;;;;;;;;4967707;28;20034;-63
2023/02/21 04:40:24;;;;;;;2.87;1.90;;;;;;;;;;4970318;28;20038;-63
2023/02/21 04:42:51;;;;;;;3.50;2.07;;;;;;;;;;4974214;28;20030;-63
2023/02/21 04:45:18;;;;;;;2.77;1.73;;;;;;;;;;4974075;28;20023;-63
2023/02/21 04:47:45;;;;;;;2.90;1.50;;;;;;;;;;4974251;28;20062;-63
2023/02/21 04:50:11;;;;;;;2.50;1.60;;;;;;;;;;4974193;28;20023;-63
2023/02/21 04:52:39;;;;;;;1.33;0.90;;;;;;;;;;4972292;28;20386;-64
2023/02/21 04:55:07;;;;;;;2.83;1.73;;;;;;;;;;4968225;28;20026;-63
2023/02/21 04:57:34;;;;;;;2.13;0.83;;;;;;;;;;4968644;28;20043;-63
2023/02/21 05:00:01;;;;;;;3.50;1.10;;;;;;;;;;4968696;28;20081;-63
2023/02/21 05:02:28;;;;;;;0.93;0.70;;;;;;;;;;4968911;28;20432;-63
2023/02/21 05:04:54;;;;;;;1.60;1.17;;;;;;;;;;4973730;28;20050;-63
2023/02/21 05:07:21;;;;;;;0.93;0.60;;;;;;;;;;4973852;28;20030;-63
2023/02/21 05:09:48;;;;;;;1.47;0.97;;;;;;;;;;4973705;28;20035;-63
2023/02/21 05:12:15;;;;;;;1.23;1.00;;;;;;;;;;4973260;28;20477;-63
2023/02/21 05:14:42;;;;;;;12.37;1.40;;;;;;;;;;4972776;28;20704;-63
2023/02/21 05:17:09;;;;;;;5.63;1.43;;;;;;;;;;4968553;28;20027;-64
2023/02/21 05:19:36;;;;;;;3.23;1.77;;;;;;;;;;4968735;28;20034;-63
2023/02/21 05:22:05;;;;;;;1.93;1.10;;;;;;;;;;4968317;28;20038;-63
2023/02/21 05:24:33;;;;;;;2.50;2.00;;;;;;;;;;4968632;28;20038;-63
2023/02/21 05:27:00;;;;;;;3.80;1.40;;;;;;;;;;4973201;28;20145;-63
2023/02/21 05:29:27;;;;;;;2.73;1.53;;;;;;;;;;4973804;28;20101;-63
2023/02/21 05:31:53;;;;;;;1.40;1.00;;;;;;;;;;4973601;28;20027;-63
2023/02/21 05:34:20;;;;;;;2.93;1.50;;;;;;;;;;4973725;28;20034;-63
2023/02/21 05:36:47;;;;;;;2.53;1.70;;;;;;;;;;4973054;28;20027;-63
2023/02/21 05:39:14;;;;;;;2.00;1.20;;;;;;;;;;4968164;28;20389;-63
2023/02/21 05:41:46;;;;;;;15.53;1.37;;;;;;;;;;4968108;28;20050;-63
2023/02/21 05:44:13;;;;;;;3.53;0.80;;;;;;;;;;4968088;28;20034;-63
2023/02/21 05:46:39;;;;;;;3.43;1.90;;;;;;;;;;4968452;28;20034;-63
2023/02/21 05:49:07;;;;;;;3.30;1.60;;;;;;;;;;4974457;28;20026;-63
2023/02/21 05:51:35;;;;;;;2.67;1.57;;;;;;;;;;4977547;28;20037;-64
2023/02/21 05:54:02;;;;;;;2.90;1.50;;;;;;;;;;4977598;28;20538;-63
2023/02/21 05:56:29;;;;;;;1.40;0.93;;;;;;;;;;4977268;28;20031;-64
2023/02/21 05:58:56;;;;;;;1.20;0.83;;;;;;;;;;4976616;28;20031;-63
2023/02/21 06:01:22;;;;;;;2.40;1.43;;;;;;;;;;4971762;28;20046;-62
2023/02/21 06:03:49;;;;;;;1.63;1.17;;;;;;;;;;4972036;28;20417;-63
2023/02/21 06:06:16;;;;;;;1.37;0.93;;;;;;;;;;4971857;28;20050;-63
2023/02/21 06:08:46;;;;;;;2.37;1.60;;;;;;;;;;4971774;28;20393;-62
2023/02/21 06:11:13;;;;;;;2.63;1.23;;;;;;;;;;4976646;28;20033;-64
2023/02/21 06:13:40;;;;;;;4.37;1.73;;;;;;;;;;4976903;28;20027;-62
2023/02/21 06:16:07;;;;;;;2.73;1.77;;;;;;;;;;4976336;28;20026;-63
2023/02/21 06:18:34;;;;;;;2.43;1.57;;;;;;;;;;4977097;28;20023;-63
2023/02/21 06:21:01;;;;;;;2.60;1.63;;;;;;;;;;4976794;28;20031;-63
2023/02/21 06:23:28;;;;;;;1.53;1.07;;;;;;;;;;4971627;28;20069;-62
2023/02/21 06:25:54;;;;;;;2.47;1.20;;;;;;;;;;4971533;28;20023;-63
2023/02/21 06:28:21;;;;;;;10.47;2.83;;;;;;;;;;4971465;28;20023;-63
2023/02/21 06:30:48;;;;;;;3.60;1.93;;;;;;;;;;4971163;28;20019;-62
2023/02/21 06:33:15;;;;;;;3.23;1.70;;;;;;;;;;4975114;28;20089;-63
2023/02/21 06:35:42;;;;;;;1.23;0.90;;;;;;;;;;4976772;28;20044;-63
2023/02/21 06:38:08;;;;;;;1.03;0.93;;;;;;;;;;4976497;28;20023;-63
2023/02/21 06:40:35;;;;;;;1.77;1.33;;;;;;;;;;4976657;28;20055;-62
2023/02/21 06:43:02;;;;;;;2.83;1.70;;;;;;;;;;4975349;28;20054;-62
2023/02/21 06:45:29;;;;;;;3.57;1.27;;;;;;;;;;4971719;28;20157;-63
2023/02/21 06:47:56;;;;;;;5.07;1.80;;;;;;;;;;4971175;28;20030;-63
2023/02/21 06:50:23;;;;;;;3.00;1.77;;;;;;;;;;4970789;28;20027;-62
2023/02/21 06:52:49;;;;;;;4.67;1.57;;;;;;;;;;4971068;28;20023;-63
2023/02/21 06:55:20;;;;;;;2.70;1.93;;;;;;;;;;4974679;28;20062;-62
2023/02/21 06:57:47;;;;;;;3.23;1.50;;;;;;;;;;4976221;28;20477;-63
2023/02/21 07:00:14;;;;;;;4.93;2.50;;;;;;;;;;4975648;28;20170;-62
2023/02/21 07:02:41;;;;;;;4.27;2.10;;;;;;;;;;4975739;28;20063;-63
2023/02/21 07:05:08;;;;;;;2.27;1.50;;;;;;;;;;4975673;28;20022;-63
2023/02/21 07:07:35;;;;;;;3.50;2.07;;;;;;;;;;4972018;28;20425;-63
2023/02/21 07:10:02;;;;;;;1.07;0.90;;;;;;;;;;4970709;28;20034;-63
2023/02/21 07:12:29;;;;;;;5.17;1.73;;;;;;;;;;4970868;28;20037;-63
2023/02/21 07:14:56;;;;;;;4.73;2.67;;;;;;;;;;4970468;28;20035;-63
2023/02/21 07:17:22;;;;;;;6.33;2.70;;;;;;;;;;4973945;28;20023;-63
2023/02/21 07:19:49;;;;;;;1.50;1.20;;;;;;;;;;4975866;28;20023;-63
2023/02/21 07:22:17;;;;;;;2.07;1.33;;;;;;;;;;4975212;28;20117;-63
2023/02/21 07:24:44;;;;;;;1.53;1.20;;;;;;;;;;4975896;28;20030;-62
2023/02/21 07:27:11;;;;;;;5.90;1.57;;;;;;;;;;4975618;28;20061;-63
2023/02/21 07:29:38;;;;;;;3.47;1.70;;;;;;;;;;4972463;28;20054;-63
2023/02/21 07:32:04;;;;;;;2.63;1.87;;;;;;;;;;4970365;28;20433;-62
2023/02/21 07:34:31;;;;;;;4.40;1.70;;;;;;;;;;4970272;28;20027;-62
2023/02/21 07:36:58;;;;;;;3.17;1.77;;;;;;;;;;4970434;28;20035;-63
2023/02/21 07:39:25;;;;;;;3.07;1.80;;;;;;;;;;4972809;28;20031;-63
2023/02/21 07:41:53;;;;;;;2.73;1.73;;;;;;;;;;4975421;28;20074;-63
2023/02/21 07:44:20;;;;;;;3.47;1.73;;;;;;;;;;4973784;28;20027;-62
2023/02/21 07:46:46;;;;;;;2.47;1.23;;;;;;;;;;4975424;28;20031;-63
2023/02/21 07:49:13;;;;;;;1.60;1.10;;;;;;;;;;4975331;28;20027;-63
2023/02/21 07:51:40;;;;;;;5.47;2.60;;;;;;;;;;4972428;28;20026;-63
2023/02/21 07:54:07;;;;;;;3.67;1.90;;;;;;;;;;4969610;28;20445;-63
2023/02/21 07:56:33;;;;;;;1.53;1.10;;;;;;;;;;4969848;28;20026;-62
2023/02/21 07:59:00;;;;;;;2.47;1.50;;;;;;;;;;4969807;28;20037;-63
2023/02/21 08:01:27;;;;;;;2.97;1.50;;;;;;;;;;4971873;28;20026;-62
2023/02/21 08:03:54;;;;;;;3.57;2.20;;;;;;;;;;4975078;28;20057;-62
2023/02/21 08:06:20;;;;;;;2.80;1.67;;;;;;;;;;4975202;28;20058;-62
2023/02/21 08:08:47;;;;;;;3.57;2.17;;;;;;;;;;4974972;28;20035;-62
2023/02/21 08:11:14;;;;;;;1.47;1.17;;;;;;;;;;4974546;28;20022;-62
2023/02/21 08:13:41;;;;;;;1.67;1.20;;;;;;;;;;4972312;28;20114;-63
2023/02/21 08:16:07;;;;;;;2.93;2.10;;;;;;;;;;4969324;28;20389;-62
2023/02/21 08:18:34;;;;;;;4.90;0.80;;;;;;;;;;4969507;28;20030;-63
2023/02/21 08:21:01;;;;;;;1.60;1.10;;;;;;;;;;4969313;28;20311;-63
2023/02/21 08:23:28;;;;;;;3.20;2.00;;;;;;;;;;4970850;28;20246;-62
2023/02/21 08:25:54;;;;;;;1.90;1.33;;;;;;;;;;4974603;28;20042;-63
2023/02/21 08:28:21;;;;;;;4.07;2.17;;;;;;;;;;4974192;28;20757;-62
2023/02/21 08:30:48;;;;;;;5.23;2.87;;;;;;;;;;4974569;28;20640;-62
2023/02/21 08:33:15;;;;;;;2.80;2.13;;;;;;;;;;4974303;28;20027;-62
2023/02/21 08:35:41;;;;;;;3.33;2.00;;;;;;;;;;4972834;28;20257;-63
2023/02/21 08:38:09;;;;;;;3.93;2.23;;;;;;;;;;4969027;28;20315;-63
2023/02/21 08:40:36;;;;;;;2.93;2.03;;;;;;;;;;4969101;28;20348;-62
2023/02/21 08:43:04;;;;;;;3.23;2.23;;;;;;;;;;4968815;28;20648;-62
2023/02/21 08:45:31;;;;;;;6.70;2.73;;;;;;;;;;4969902;28;20810;-62
2023/02/21 08:47:58;;;;;;;0.93;0.77;;;;;;;;;;4974485;28;20695;-62
2023/02/21 08:50:26;;;;;;;2.97;1.97;;;;;;;;;;4974040;28;20265;-62
2023/02/21 08:52:53;;;;;;;3.27;1.30;;;;;;;;;;4974215;28;20256;-62
2023/02/21 08:55:20;;;;;;;3.43;2.13;;;;;;;;;;4974057;28;20296;-62
2023/02/21 08:57:51;;;;;;;2.67;2.00;;;;;;;;;;4972606;28;20323;-62
2023/02/21 09:00:22;;;;;;;2.40;1.30;;;;;;;;;;4968868;28;20836;-62
2023/02/21 09:02:49;;;;;;;3.70;2.20;;;;;;;;;;4968671;28;20285;-62
2023/02/21 09:05:19;;;;;;;2.90;1.73;;;;;;;;;;4968827;28;20300;-64
2023/02/21 09:07:49;;;;;;;3.57;1.97;;;;;;;;;;4969340;28;20276;-62
2023/02/21 09:10:17;;;;;;;2.37;1.90;;;;;;;;;;4973735;28;20272;-62
2023/02/21 09:12:44;;;;;;;2.33;1.80;;;;;;;;;;4973076;28;20296;-63
2023/02/21 09:15:11;;;;;;;4.33;2.47;;;;;;;;;;4973902;28;20273;-62
2023/02/21 09:17:37;;;;;;;1.97;1.47;;;;;;;;;;4973753;28;20256;-62
2023/02/21 09:20:05;;;;;;;2.10;1.50;;;;;;;;;;4972544;28;20265;-62
2023/02/21 09:22:33;;;;;;;2.77;1.83;;;;;;;;;;4968447;28;20639;-62
2023/02/21 09:24:59;;;;;;;1.57;1.30;;;;;;;;;;4967880;28;20261;-63
2023/02/21 09:27:35;;;;;;;1.77;1.20;;;;;;;;;;4968270;28;20284;-62
2023/02/21 09:30:03;;;;;;;3.13;2.00;;;;;;;;;;4969252;28;20601;-62
2023/02/21 09:32:30;;;;;;;3.83;2.30;;;;;;;;;;4972338;28;20289;-63
2023/02/21 09:34:57;;;;;;;3.10;1.90;;;;;;;;;;4973649;28;20300;-62
2023/02/21 09:37:24;;;;;;;2.13;1.60;;;;;;;;;;4973494;28;20284;-62
2023/02/21 09:39:51;;;;;;;3.10;2.43;;;;;;;;;;4973557;28;20264;-62
2023/02/21 09:42:18;;;;;;;3.40;2.17;;;;;;;;;;4971217;28;20292;-62
2023/02/21 09:44:46;;;;;;;2.53;1.90;;;;;;;;;;4968138;28;20264;-62
2023/02/21 09:47:39;;;;;;;3.27;2.30;;;;;;;;;;4968247;28;20261;-63
2023/02/21 09:50:15;;;;;;;4.33;2.87;;;;;;;;;;4964564;28;20328;-63
2023/02/21 09:52:42;;;;;;;3.00;2.10;;;;;;;;;;4970077;28;20747;-62
2023/02/21 09:55:16;;;;;;;2.47;1.63;;;;;;;;;;4973429;28;20291;-62
2023/02/21 09:57:43;;;;;;;1.33;1.10;;;;;;;;;;4973370;28;20261;-62
2023/02/21 10:00:16;;;;;;;1.80;1.40;;;;;;;;;;4973307;28;20260;-62
2023/02/21 10:02:56;;;;;;;1.53;1.23;;;;;;;;;;4973523;28;20771;-62
2023/02/21 10:05:40;;;;;;;2.70;1.57;;;;;;;;;;4969953;28;20280;-62
2023/02/21 10:08:10;;;;;;;2.77;1.50;;;;;;;;;;4968393;28;20589;-62
2023/02/21 10:10:59;;;;;;;1.60;1.17;;;;;;;;;;4968109;28;20276;-62
2023/02/21 10:13:35;;;;;;;2.97;2.20;;;;;;;;;;4940346;28;20311;-62
2023/02/21 10:16:04;;;;;;;2.23;1.83;;;;;;;;;;4972058;28;20348;-62
2023/02/21 10:18:34;;;;;;;3.43;2.20;;;;;;;;;;4973133;28;20297;-62
2023/02/21 10:21:04;;;;;;;4.07;2.17;;;;;;;;;;4972588;28;20257;-62
2023/02/21 10:23:38;;;;;;;4.67;1.80;;;;;;;;;;4973290;28;20592;-62
2023/02/21 10:26:08;;;;;;;1.95;1.75;;;;;;;;;;4973238;28;20272;-62
2023/02/21 10:28:35;;;;;;;3.23;2.33;;;;;;;;;;4966907;28;20023;-63
2023/02/21 10:31:07;;;;;;;3.00;1.60;;;;;;;;;;4968059;28;20266;-62
2023/02/21 10:33:37;;;;;;;2.97;2.13;;;;;;;;;;4967367;28;20261;-62
2023/02/21 10:36:10;;;;;;;1.90;1.47;;;;;;;;;;4969906;28;20260;-62
2023/02/21 10:38:38;;;;;;;3.57;1.20;;;;;;;;;;4976178;28;20351;-62
2023/02/21 10:41:05;;;;;;;2.63;2.00;;;;;;;;;;4976429;28;20273;-62
2023/02/21 10:43:47;;;;;;;3.47;2.00;;;;;;;;;;4976520;28;20316;-62
2023/02/21 10:46:34;;;;;;;5.20;2.53;;;;;;;;;;4976584;28;20253;-62
2023/02/21 10:49:17;;;;;;;3.00;2.27;;;;;;;;;;4975163;28;20264;-62
2023/02/21 10:51:44;;;;;;;3.90;2.13;;;;;;;;;;4970782;28;20284;-62
2023/02/21 10:54:19;;;;;;;2.47;1.93;;;;;;;;;;4971226;28;20736;-62
2023/02/21 10:56:46;;;;;;;4.27;2.37;;;;;;;;;;4971244;28;20265;-62
2023/02/21 10:59:20;;;;;;;4.07;1.97;;;;;;;;;;4972308;28;20277;-62
2023/02/21 11:01:48;;;;;;;3.37;2.13;;;;;;;;;;4976188;28;20295;-62
2023/02/21 11:04:21;;;;;;;3.47;2.07;;;;;;;;;;4974652;28;20639;-62
2023/02/21 11:06:53;;;;;;;3.37;1.87;;;;;;;;;;4975635;28;20300;-62
2023/02/21 11:09:31;;;;;;;3.13;2.40;;;;;;;;;;4976082;28;20261;-62
2023/02/21 11:12:04;;;;;;;3.63;1.43;;;;;;;;;;4973239;28;20265;-62
2023/02/21 11:14:32;;;;;;;2.80;2.17;;;;;;;;;;4970274;28;20265;-62
2023/02/21 11:17:33;;;;;;;3.73;2.53;;;;;;;;;;4970355;28;20347;-62
2023/02/21 11:20:18;;;;;;;3.53;2.30;;;;;;;;;;4939346;28;20276;-62
2023/02/21 11:22:49;;;;;;;2.25;1.65;;;;;;;;;;4974607;28;21187;-62
2023/02/21 11:25:18;;;;;;;10.83;2.30;;;;;;;;;;4975656;28;20060;-62
2023/02/21 11:27:45;;;;;;;5.93;2.67;;;;;;;;;;4975589;28;20272;-62
2023/02/21 11:30:18;;;;;;;4.13;2.70;;;;;;;;;;4975722;28;20307;-62
2023/02/21 11:32:49;;;;;;;3.43;2.03;;;;;;;;;;4975364;28;20289;-62
2023/02/21 11:35:19;;;;;;;4.43;3.10;;;;;;;;;;4970533;28;20798;-62
2023/02/21 11:37:54;;;;;;;3.80;3.10;;;;;;;;;;4969923;28;20323;-62
2023/02/21 11:40:27;;;;;;;1.42;1.25;;;;;;;;;;4969071;28;20342;-62
2023/02/21 11:43:13;;;;;;;3.27;2.27;;;;;;;;;;4969877;28;20121;-62
2023/02/21 11:45:43;;;;;;;2.63;2.20;;;;;;;;;;4975331;28;20253;-63
2023/02/21 11:48:14;;;;;;;2.50;1.93;;;;;;;;;;4974772;28;20340;-62
2023/02/21 11:50:45;;;;;;;3.60;2.43;;;;;;;;;;4975359;28;20252;-62
2023/02/21 11:53:24;;;;;;;2.37;1.73;;;;;;;;;;4974981;28;20257;-63
2023/02/21 11:56:09;;;;;;;3.23;2.23;;;;;;;;;;4973701;28;20384;-62
2023/02/21 11:59:02;;;;;;;9.10;3.08;;;;;;;;;;4969814;28;20392;-62
2023/02/21 12:01:36;;;;;;;3.47;2.40;;;;;;;;;;4947172;28;20043;-62
2023/02/21 12:04:18;;;;;;;4.23;2.13;;;;;;;;;;4969159;28;20276;-62
2023/02/21 12:06:53;;;;;;;2.23;1.97;;;;;;;;;;4972286;28;20456;-63
2023/02/21 12:09:20;;;;;;;1.97;1.57;;;;;;;;;;4974763;28;20568;-63
2023/02/21 12:12:07;;;;;;;3.90;2.77;;;;;;;;;;4975089;28;20280;-62
2023/02/21 12:14:33;;;;;;;1.97;1.60;;;;;;;;;;4974732;28;20256;-63
2023/02/21 12:17:19;;;;;;;6.47;2.97;;;;;;;;;;4973653;28;20261;-62
2023/02/21 12:19:51;;;;;;;2.75;2.08;;;;;;;;;;4969637;28;20581;-62
2023/02/21 12:22:18;;;;;;;2.00;1.53;;;;;;;;;;4969395;28;20035;-62
2023/02/21 12:24:54;;;;;;;19.20;3.33;;;;;;;;;;4969441;28;20340;-62
2023/02/21 12:27:30;;;;;;;2.93;2.27;;;;;;;;;;4968909;28;20359;-62
2023/02/21 12:30:00;;;;;;;3.53;2.13;;;;;;;;;;4974476;28;20264;-63
2023/02/21 12:32:34;;;;;;;3.70;2.63;;;;;;;;;;4974420;28;20253;-63
2023/02/21 12:35:00;;;;;;;2.73;2.03;;;;;;;;;;4974513;28;20620;-62
2023/02/21 12:37:49;;;;;;;3.70;2.73;;;;;;;;;;4973889;28;20766;-63
2023/02/21 12:40:20;;;;;;;3.53;2.63;;;;;;;;;;4973110;28;20261;-62
2023/02/21 12:43:05;;;;;;;3.03;1.87;;;;;;;;;;4968974;28;20372;-62
2023/02/21 12:45:51;;;;;;;20.77;2.78;;;;;;;;;;4968976;28;20256;-62
2023/02/21 12:48:50;;;;;;;4.17;2.77;;;;;;;;;;4968777;28;20023;-62
2023/02/21 12:51:18;;;;;;;2.63;2.10;;;;;;;;;;4939371;28;20276;-62
2023/02/21 12:54:05;;;;;;;3.90;2.43;;;;;;;;;;4974285;28;20809;-62
2023/02/21 12:56:44;;;;;;;3.87;2.63;;;;;;;;;;4974181;28;20814;-62
2023/02/21 12:59:23;;;;;;;3.70;2.63;;;;;;;;;;4972909;28;20363;-62
2023/02/21 13:02:01;;;;;;;4.63;2.90;;;;;;;;;;4974056;28;20364;-62
2023/02/21 13:04:35;;;;;;;3.53;2.57;;;;;;;;;;4968720;28;20261;-62
2023/02/21 13:07:18;;;;;;;8.03;3.17;;;;;;;;;;4968005;28;20261;-62
2023/02/21 13:09:50;;;;;;;4.13;2.23;;;;;;;;;;4968559;28;20285;-63
2023/02/21 13:12:23;;;;;;;6.83;3.80;;;;;;;;;;4968990;28;20259;-62
2023/02/21 13:14:58;;;;;;;2.37;1.87;;;;;;;;;;4973753;28;20265;-62
2023/02/21 13:17:26;;;;;;;3.17;2.30;;;;;;;;;;4973614;28;20265;-62
2023/02/21 13:19:56;;;;;;;3.50;2.53;;;;;;;;;;4973856;28;20323;-62
2023/02/21 13:22:27;;;;;;;2.43;2.00;;;;;;;;;;4973729;28;20292;-62
2023/02/21 13:24:59;;;;;;;6.10;3.23;;;;;;;;;;4971877;28;20256;-63
2023/02/21 13:27:34;;;;;;;17.47;2.87;;;;;;;;;;4967910;28;20288;-63
2023/02/21 13:30:03;;;;;;;3.00;1.80;;;;;;;;;;4968516;28;20307;-62
2023/02/21 13:32:37;;;;;;;2.83;2.53;;;;;;;;;;4949245;28;20027;-62
2023/02/21 13:35:06;;;;;;;10.27;3.33;;;;;;;;;;4950918;28;20277;-62
2023/02/21 13:37:34;;;;;;;3.83;2.57;;;;;;;;;;4958100;28;20827;-63
2023/02/21 13:40:22;;;;;;;11.00;3.97;;;;;;;;;;4973073;28;20276;-62
2023/02/21 13:42:58;;;;;;;7.77;3.83;;;;;;;;;;4973366;28;20810;-63
2023/02/21 13:45:26;;;;;;;8.40;3.77;;;;;;;;;;4973525;28;20736;-62
2023/02/21 13:47:52;;;;;;;12.83;4.13;;;;;;;;;;4969476;28;20747;-63
2023/02/21 13:50:31;;;;;;;24.63;6.30;;;;;;;;;;4968245;28;20256;-63
2023/02/21 13:53:16;;;;;;;13.70;6.67;;;;;;;;;;4968114;28;20284;-62
2023/02/21 13:56:12;;;;;;;16.08;4.47;;;;;;;;;;4967937;28;20260;-62
2023/02/21 13:58:39;;;;;;;;;;;;;;;;;;4960597;28;20514;-62
2023/02/21 14:01:28;;;;;;;6.83;2.73;;;;;;;;;;4973390;28;19910;-62
2023/02/21 14:03:56;;;;;;;6.37;2.20;;;;;;;;;;4972757;28;20838;-63
2023/02/21 14:06:25;;;;;;;12.33;3.67;;;;;;;;;;4973330;28;20360;-63
2023/02/21 14:08:57;;;;;;;3.77;2.63;;;;;;;;;;4972245;28;20268;-63
2023/02/21 14:11:30;;;;;;;9.17;3.17;;;;;;;;;;4970949;28;20271;-63
2023/02/21 14:13:57;;;;;;;6.17;2.17;;;;;;;;;;4971920;28;20261;-63
2023/02/21 14:16:31;;;;;;;3.97;2.63;;;;;;;;;;4971311;28;20023;-63
2023/02/21 14:19:04;;;;;;;6.28;3.10;;;;;;;;;;4972019;28;20031;-63
2023/02/21 14:21:45;;;;;;;5.90;2.83;;;;;;;;;;4977055;28;20093;-63
2023/02/21 14:24:11;;;;;;;3.13;2.30;;;;;;;;;;4976866;28;20023;-63
2023/02/21 14:26:41;;;;;;;2.97;1.93;;;;;;;;;;4976740;28;20023;-63
2023/02/21 14:29:09;;;;;;;12.00;3.17;;;;;;;;;;4976649;28;20035;-63
2023/02/21 14:31:47;;;;;;;5.67;2.80;;;;;;;;;;4974902;28;20054;-64
2023/02/21 14:34:14;;;;;;;3.97;2.23;;;;;;;;;;4971749;28;20089;-63
2023/02/21 14:36:41;;;;;;;3.07;2.30;;;;;;;;;;4971190;28;20034;-63
2023/02/21 14:39:08;;;;;;;3.37;1.90;;;;;;;;;;4971290;28;20034;-63
2023/02/21 14:41:38;;;;;;;10.27;2.80;;;;;;;;;;4972903;28;20034;-63
2023/02/21 14:44:10;;;;;;;7.07;2.63;;;;;;;;;;4976697;28;20536;-63
2023/02/21 14:46:45;;;;;;;3.17;1.90;;;;;;;;;;4976544;28;20035;-63
2023/02/21 14:49:27;;;;;;;2.73;1.87;;;;;;;;;;4974886;28;20084;-64
2023/02/21 14:52:01;;;;;;;4.73;2.10;;;;;;;;;;4975767;28;20023;-63
2023/02/21 14:54:36;;;;;;;6.50;2.80;;;;;;;;;;4971956;28;20042;-65
2023/02/21 14:57:02;;;;;;;;;;;;;;;;;;4971540;28;20054;-64
2023/02/21 14:59:47;;;;;;;4.07;2.40;;;;;;;;;;4970574;28;19906;-64
2023/02/21 15:02:18;;;;;;;4.53;2.20;;;;;;;;;;4970978;28;20363;-64
2023/02/21 15:05:03;;;;;;;3.63;1.73;;;;;;;;;;4974489;28;20034;-64
2023/02/21 15:07:48;;;;;;;3.78;2.58;;;;;;;;;;4975919;28;20362;-64
2023/02/21 15:10:22;;;;;;;3.17;2.40;;;;;;;;;;4975985;28;20039;-64
2023/02/21 15:12:54;;;;;;;3.22;1.98;;;;;;;;;;4976048;28;20019;-64
2023/02/21 15:15:28;;;;;;;3.23;2.17;;;;;;;;;;4974530;28;20090;-64
2023/02/21 15:17:57;;;;;;;10.07;3.42;;;;;;;;;;4969722;28;20031;-64
2023/02/21 15:20:24;;;;;;;18.27;2.47;;;;;;;;;;4970773;28;20037;-64
2023/02/21 15:22:59;;;;;;;5.30;3.23;;;;;;;;;;4969718;28;20064;-64
2023/02/21 15:25:26;;;;;;;3.00;2.20;;;;;;;;;;4970424;28;20038;-64
2023/02/21 15:27:54;;;;;;;4.67;2.70;;;;;;;;;;4975902;28;20049;-64
2023/02/21 15:30:26;;;;;;;6.97;3.00;;;;;;;;;;4975728;28;20486;-64
2023/02/21 15:33:12;;;;;;;7.13;2.90;;;;;;;;;;4975668;28;20118;-64
2023/02/21 15:35:42;;;;;;;7.50;4.10;;;;;;;;;;4975053;28;20421;-64
2023/02/21 15:38:17;;;;;;;8.07;3.80;;;;;;;;;;4973846;28;20042;-64
2023/02/21 15:40:44;;;;;;;4.03;2.73;;;;;;;;;;4970245;28;20031;-63
2023/02/21 15:43:20;;;;;;;5.37;3.33;;;;;;;;;;4970042;28;20117;-64
2023/02/21 15:45:48;;;;;;;5.30;3.07;;;;;;;;;;4970046;28;20026;-64
2023/02/21 15:48:14;;;;;;;5.00;2.53;;;;;;;;;;4971561;28;20053;-64
2023/02/21 15:50:45;;;;;;;6.87;3.20;;;;;;;;;;4974822;28;20098;-64
2023/02/21 15:53:20;;;;;;;6.60;2.63;;;;;;;;;;4974986;28;20474;-64
2023/02/21 15:55:47;;;;;;;7.38;3.70;;;;;;;;;;4975263;28;20409;-64
2023/02/21 15:58:19;;;;;;;6.10;3.23;;;;;;;;;;4975177;28;20030;-64
2023/02/21 16:00:47;;;;;;;2.40;1.63;;;;;;;;;;4972099;28;20074;-64
2023/02/21 16:03:31;;;;;;;9.27;3.30;;;;;;;;;;4969088;28;20556;-64
2023/02/21 16:06:14;;;;;;;6.55;3.97;;;;;;;;;;4968492;28;20094;-64
2023/02/21 16:08:50;;;;;;;7.10;2.87;;;;;;;;;;4969179;28;20067;-65
2023/02/21 16:11:18;;;;;;;4.87;3.00;;;;;;;;;;4973274;28;20035;-64
2023/02/21 16:13:45;;;;;;;9.37;3.93;;;;;;;;;;4974749;28;20027;-64
2023/02/21 16:16:12;;;;;;;6.90;3.73;;;;;;;;;;4974544;28;20033;-64
2023/02/21 16:18:39;;;;;;;6.77;3.20;;;;;;;;;;4974758;28;20030;-64
2023/02/21 16:21:06;;;;;;;5.97;3.57;;;;;;;;;;4974295;28;20057;-64
2023/02/21 16:23:39;;;;;;;13.33;3.90;;;;;;;;;;4970813;28;20031;-65
2023/02/21 16:26:10;;;;;;;5.93;3.80;;;;;;;;;;4969249;28;20050;-64
2023/02/21 16:28:38;;;;;;;6.63;3.10;;;;;;;;;;4969410;28;20717;-64
2023/02/21 16:31:06;;;;;;;4.97;3.57;;;;;;;;;;4969040;28;20027;-64
2023/02/21 16:33:33;;;;;;;7.03;3.80;;;;;;;;;;4972852;28;20022;-64
2023/02/21 16:36:00;;;;;;;7.33;4.00;;;;;;;;;;4972814;28;20073;-64
2023/02/21 16:38:27;;;;;;;5.40;3.10;;;;;;;;;;4973159;28;20364;-64
2023/02/21 16:40:54;;;;;;;9.07;3.57;;;;;;;;;;4974415;28;20047;-64
2023/02/21 16:43:22;;;;;;;4.17;2.70;;;;;;;;;;4974065;28;20114;-64
2023/02/21 16:45:50;;;;;;;4.43;2.80;;;;;;;;;;4970365;28;20031;-65
2023/02/21 16:48:20;;;;;;;9.17;3.03;;;;;;;;;;4968713;28;20029;-64
2023/02/21 16:50:48;;;;;;;26.73;3.67;;;;;;;;;;4968562;28;20049;-64
2023/02/21 16:53:16;;;;;;;8.40;3.90;;;;;;;;;;4968826;28;20042;-64
2023/02/21 16:55:42;;;;;;;9.67;3.47;;;;;;;;;;4971838;28;20026;-64
2023/02/21 16:58:19;;;;;;;4.17;2.40;;;;;;;;;;4973714;28;20060;-64
2023/02/21 17:00:46;;;;;;;5.90;3.17;;;;;;;;;;4974130;28;20129;-64
2023/02/21 17:03:13;;;;;;;7.93;3.23;;;;;;;;;;4973387;28;20046;-64
2023/02/21 17:05:40;;;;;;;5.07;2.37;;;;;;;;;;4973897;28;20034;-64
2023/02/21 17:08:06;;;;;;;3.87;2.00;;;;;;;;;;4969738;28;20484;-64
2023/02/21 17:10:34;;;;;;;12.70;2.47;;;;;;;;;;4968615;28;20034;-64
2023/02/21 17:13:02;;;;;;;2.97;1.80;;;;;;;;;;4968539;28;20070;-64
2023/02/21 17:15:30;;;;;;;3.00;1.60;;;;;;;;;;4968524;28;20033;-64
2023/02/21 17:17:58;;;;;;;6.00;1.43;;;;;;;;;;4971812;28;20022;-64